St. George, UT

8:10 PM MDT on July 27, 2017 (GMT -0600)
Saint George Municipal

Weather History for KSGU - May, 2014

Change the Weather History Date:

Monday, May 5, 2014

  Actual Average Record
Temperature  
Mean Temperature 76 °F -  
Max Temperature 87 °F 82 °F 99 °F (1947)
Min Temperature 64 °F 53 °F 37 °F (1950)
Cooling Degree Days 10    
Growing Degree Days 26 (Base 50)    
Moisture  
Dew Point 17 °F    
Average Humidity 11    
Maximum Humidity 14    
Minimum Humidity 10    
Precipitation  
Precipitation 0.00 in - - ()
Sea Level Pressure  
Sea Level Pressure 29.81 in    
Wind  
Wind Speed 14 mph (South)    
Max Wind Speed 30 mph    
Max Gust Speed 41 mph    
Visibility 10 miles    
Events      
Averages and records for this station are not official NWS values.
T = Trace of Precipitation, MM = Missing Value Source: NWS Daily Summary

Daily Weather History Graph

Daily Weather History Graph

Search for Another Location

Airport or City:

Trip Planner

Search our weather history database for the weather conditions in past years. The results will help you decide how hot, cold, wet, or windy it might be!

Date:

Astronomy

May. 05, 2014 Rise Set
Actual Time 6:35 AM MDT 8:26 PM MDT
Civil Twilight 6:07 AM MDT 8:55 PM MDT
Nautical Twilight 5:32 AM MDT 9:29 PM MDT
Astronomical Twilight 4:56 AM MDT 10:06 PM MDT
Moon 11:58 AM MDT (5/5) 1:13 AM MDT (5/5)
Length of Visible Light 14h 48m
Length of Day
13h 51m
Waxing Crescent, 37% of the Moon is Illuminated
May 5
Waxing Crescent
May 6
First Quarter
May 14
Full
May 21
Last Quarter
May 28
New

Hourly Weather History & Observations

Time (MDT) Temp. Dew Point Humidity Pressure Visibility Wind Dir Wind Speed Gust Speed Precip Events Conditions
12:15 AM 69.8 °F 12.2 °F 11% 29.87 in 10.0 mi SE 13.8 mph - N/A   Clear
12:35 AM 71.6 °F 12.2 °F 10% 29.87 in 10.0 mi SE 13.8 mph - N/A   Clear
12:55 AM 69.8 °F 12.2 °F 11% 29.87 in 10.0 mi SE 13.8 mph - N/A   Clear
1:15 AM 69.8 °F 12.2 °F 11% 29.88 in 10.0 mi ESE 11.5 mph - N/A   Clear
1:35 AM 69.8 °F 12.2 °F 11% 29.88 in 10.0 mi ESE 10.4 mph - N/A   Clear
1:55 AM 69.8 °F 10.4 °F 10% 29.88 in 10.0 mi ESE 12.7 mph - N/A   Clear
2:15 AM 69.8 °F 10.4 °F 10% 29.87 in 10.0 mi ESE 12.7 mph - N/A   Clear
2:35 AM 69.8 °F 10.4 °F 10% 29.87 in 10.0 mi ESE 16.1 mph - N/A   Clear
2:55 AM 69.8 °F 12.2 °F 11% 29.87 in 10.0 mi SE 11.5 mph - N/A   Clear
3:15 AM 69.8 °F 10.4 °F 10% 29.87 in 10.0 mi SSE 15.0 mph - N/A   Clear
3:35 AM 69.8 °F 12.2 °F 11% 29.87 in 10.0 mi SE 16.1 mph - N/A   Clear
3:55 AM 69.8 °F 12.2 °F 11% 29.87 in 10.0 mi SE 13.8 mph - N/A   Clear
4:15 AM 68.0 °F 10.4 °F 11% 29.87 in 10.0 mi SSE 16.1 mph - N/A   Clear
4:35 AM 69.8 °F 10.4 °F 10% 29.87 in 10.0 mi SSE 18.4 mph - N/A   Clear
4:55 AM 69.8 °F 10.4 °F 10% 29.87 in 10.0 mi SE 17.3 mph - N/A   Clear
5:15 AM 66.2 °F 10.4 °F 11% 29.87 in 10.0 mi SE 12.7 mph - N/A   Clear
5:35 AM 69.8 °F 10.4 °F 10% 29.87 in 10.0 mi SSE 15.0 mph - N/A   Clear
5:55 AM 66.2 °F 10.4 °F 11% 29.87 in 10.0 mi SSE 15.0 mph - N/A   Clear
6:15 AM 66.2 °F 10.4 °F 11% 29.87 in 10.0 mi SSE 13.8 mph - N/A   Clear
6:35 AM 68.0 °F 12.2 °F 12% 29.87 in 10.0 mi SSE 13.8 mph - N/A   Clear
6:55 AM 66.2 °F 12.2 °F 12% 29.87 in 10.0 mi ESE 12.7 mph - N/A   Clear
7:15 AM 64.4 °F 14.0 °F 14% 29.88 in 10.0 mi SE 9.2 mph - N/A   Clear
7:35 AM 66.2 °F 15.8 °F 14% 29.88 in 10.0 mi ESE 15.0 mph - N/A   Clear
7:55 AM 69.8 °F 17.6 °F 14% 29.88 in 10.0 mi ESE 13.8 mph - N/A   Clear
8:15 AM 69.8 °F 17.6 °F 14% 29.88 in 10.0 mi ESE 12.7 mph - N/A   Clear
8:35 AM 71.6 °F 19.4 °F 14% 29.88 in 10.0 mi ESE 13.8 mph - N/A   Clear
8:55 AM 73.4 °F 19.4 °F 13% 29.89 in 10.0 mi ESE 13.8 mph 18.4 mph N/A   Clear
9:15 AM 73.4 °F 19.4 °F 13% 29.89 in 10.0 mi SSE 12.7 mph - N/A   Clear
9:35 AM 75.2 °F 19.4 °F 12% 29.89 in 10.0 mi South 10.4 mph - N/A   Clear
9:55 AM 75.2 °F 17.6 °F 11% 29.89 in 10.0 mi South 9.2 mph - N/A   Clear
10:15 AM 75.2 °F 17.6 °F 11% 29.89 in 10.0 mi SSW 10.4 mph - N/A   Clear
10:35 AM 75.2 °F 17.6 °F 11% 29.89 in 10.0 mi SW 9.2 mph - N/A   Clear
10:55 AM 77.0 °F 17.6 °F 11% 29.88 in 10.0 mi SSW 11.5 mph - N/A   Clear
11:15 AM 78.8 °F 17.6 °F 10% 29.88 in 10.0 mi South 8.1 mph - N/A   Clear
11:35 AM 77.0 °F 17.6 °F 11% 29.88 in 10.0 mi Calm Calm - N/A   Clear
12:15 PM 78.8 °F 19.4 °F 11% 29.86 in 10.0 mi SSE 3.5 mph - N/A   Clear
12:35 PM 80.6 °F 19.4 °F 10% 29.85 in 10.0 mi East 3.5 mph - N/A   Clear
12:55 PM 80.6 °F 19.4 °F 10% 29.84 in 10.0 mi NW 8.1 mph - N/A   Clear
1:15 PM 82.4 °F 21.2 °F 10% 29.83 in 10.0 mi NNW 3.5 mph - N/A   Clear
1:35 PM 82.4 °F 21.2 °F 10% 29.81 in 10.0 mi South 4.6 mph - N/A   Clear
1:55 PM 84.2 °F 23.0 °F 11% 29.80 in 10.0 mi West 16.1 mph 25.3 mph N/A   Clear
2:15 PM 87.8 °F 24.8 °F 10% 29.80 in 10.0 mi SW 17.3 mph 31.1 mph N/A   Partly Cloudy
2:35 PM 87.8 °F 24.8 °F 10% 29.78 in 10.0 mi SW 24.2 mph 34.5 mph N/A   Partly Cloudy
2:55 PM 87.8 °F 24.8 °F 10% 29.77 in 10.0 mi WSW 27.6 mph 41.4 mph N/A   Clear
3:15 PM 87.8 °F 24.8 °F 10% 29.77 in 10.0 mi SW 29.9 mph 38.0 mph N/A   Clear
3:35 PM 87.8 °F 24.8 °F 10% 29.76 in 10.0 mi SSW 28.8 mph 32.2 mph N/A   Clear
3:55 PM 87.8 °F 24.8 °F 10% 29.75 in 10.0 mi SW 26.5 mph 35.7 mph N/A   Clear
4:15 PM 87.8 °F 24.8 °F 10% 29.74 in 10.0 mi SSW 29.9 mph 36.8 mph N/A   Clear
4:35 PM 86.0 °F 24.8 °F 11% 29.73 in 10.0 mi SSW 28.8 mph 33.4 mph N/A   Clear
4:55 PM 84.2 °F 24.8 °F 11% 29.73 in 10.0 mi SSW 25.3 mph - N/A   Clear
5:15 PM 87.8 °F 24.8 °F 10% 29.72 in 10.0 mi SW 21.9 mph 31.1 mph N/A   Clear
5:35 PM 86.0 °F 24.8 °F 11% 29.72 in 10.0 mi WSW 26.5 mph 31.1 mph N/A   Clear
5:55 PM 84.2 °F 23.0 °F 11% 29.72 in 10.0 mi SW 23.0 mph 32.2 mph N/A   Clear
6:15 PM 82.4 °F 21.2 °F 10% 29.71 in 10.0 mi SW 20.7 mph 29.9 mph N/A   Clear
6:35 PM 82.4 °F 21.2 °F 10% 29.71 in 10.0 mi SSW 28.8 mph 38.0 mph N/A   Clear
6:55 PM 82.4 °F 21.2 °F 10% 29.71 in 10.0 mi SSW 24.2 mph 31.1 mph N/A   Clear
7:15 PM 82.4 °F 21.2 °F 10% 29.70 in 10.0 mi SSW 23.0 mph 27.6 mph N/A   Clear
7:35 PM 82.4 °F 21.2 °F 10% 29.70 in 10.0 mi SSW 23.0 mph 34.5 mph N/A   Clear
7:55 PM 80.6 °F 19.4 °F 10% 29.71 in 10.0 mi WSW 18.4 mph 23.0 mph N/A   Clear
8:15 PM 78.8 °F 19.4 °F 11% 29.71 in 10.0 mi WSW 16.1 mph 24.2 mph N/A   Clear
8:35 PM 78.8 °F 17.6 °F 10% 29.71 in 10.0 mi WSW 11.5 mph - N/A   Clear
8:55 PM 75.2 °F 17.6 °F 11% 29.71 in 10.0 mi WSW 6.9 mph - N/A   Clear
9:15 PM 73.4 °F 15.8 °F 11% 29.71 in 10.0 mi Calm Calm - N/A   Clear
9:35 PM 73.4 °F 15.8 °F 11% 29.70 in 10.0 mi Calm Calm - N/A   Clear
9:55 PM 73.4 °F 15.8 °F 11% 29.71 in 10.0 mi Calm Calm - N/A   Clear
10:15 PM 73.4 °F 15.8 °F 11% 29.71 in 10.0 mi WSW 3.5 mph - N/A   Clear
10:35 PM 71.6 °F 14.0 °F 11% 29.71 in 10.0 mi Calm Calm - N/A   Clear
10:55 PM 69.8 °F 12.2 °F 11% 29.71 in 10.0 mi Calm Calm - N/A   Clear
11:15 PM 69.8 °F 12.2 °F 11% 29.70 in 10.0 mi ESE 3.5 mph - N/A   Clear
11:35 PM 71.6 °F 14.0 °F 11% 29.70 in 10.0 mi Calm Calm - N/A   Clear
11:55 PM 71.6 °F 14.0 °F 11% 29.69 in 10.0 mi Calm Calm - N/A   Clear